createdAt,value
2023-03-20T00:02:04.342Z,66.52
2023-03-20T00:04:32.945Z,66.70
2023-03-20T00:07:01.113Z,66.45
2023-03-20T00:09:29.409Z,66.62
2023-03-20T00:11:57.568Z,66.35
2023-03-20T00:14:26.462Z,66.40
2023-03-20T00:16:54.746Z,66.57
2023-03-20T00:19:24.764Z,66.59
2023-03-20T00:21:54.072Z,66.37
2023-03-20T00:24:22.670Z,66.58
2023-03-20T00:26:51.567Z,66.93
2023-03-20T00:29:22.456Z,66.79
2023-03-20T00:31:50.916Z,67.01
2023-03-20T00:34:20.712Z,66.98
2023-03-20T00:36:49.595Z,67.33
2023-03-20T00:39:17.671Z,67.58
2023-03-20T00:41:48.713Z,67.31
2023-03-20T00:44:26.621Z,67.03
2023-03-20T00:47:00.102Z,67.24
2023-03-20T00:49:31.031Z,67.36
2023-03-20T00:51:59.256Z,67.37
2023-03-20T00:54:27.422Z,67.43
2023-03-20T00:57:01.180Z,67.48
2023-03-20T00:59:33.406Z,67.56
2023-03-20T01:02:02.796Z,67.87
2023-03-20T01:04:36.503Z,67.92
2023-03-20T01:07:05.106Z,67.88
2023-03-20T01:09:34.018Z,67.98
2023-03-20T01:12:03.011Z,68.08
2023-03-20T01:14:31.186Z,67.87
2023-03-20T01:16:59.254Z,67.87
2023-03-20T01:19:27.634Z,67.57
2023-03-20T01:21:56.434Z,67.23
2023-03-20T01:24:24.710Z,67.42
2023-03-20T01:26:53.609Z,67.44
2023-03-20T01:29:24.136Z,67.72
2023-03-20T01:31:53.097Z,68.12
2023-03-20T01:34:22.269Z,68.16
2023-03-20T01:36:53.995Z,68.31
2023-03-20T01:39:24.599Z,68.57
2023-03-20T01:41:54.463Z,68.61
2023-03-20T01:44:25.085Z,68.66
2023-03-20T01:46:57.767Z,68.75
2023-03-20T01:49:26.610Z,68.80
2023-03-20T01:51:56.661Z,68.66
2023-03-20T01:54:43.594Z,68.49
2023-03-20T01:57:23.131Z,68.53
2023-03-20T01:59:52.766Z,68.52
2023-03-20T02:02:27.271Z,68.47
2023-03-20T02:04:58.491Z,68.54
2023-03-20T02:07:26.806Z,68.33
2023-03-20T02:10:08.905Z,68.30
2023-03-20T02:13:04.722Z,68.20
2023-03-20T02:15:53.565Z,68.27
2023-03-20T02:18:37.815Z,68.38
2023-03-20T02:21:22.161Z,68.35
2023-03-20T02:24:03.432Z,68.40
2023-03-20T02:26:35.405Z,68.37
2023-03-20T02:29:24.559Z,68.37
2023-03-20T02:32:12.488Z,68.15
2023-03-20T02:34:56.225Z,68.22
2023-03-20T02:37:43.899Z,68.20
2023-03-20T02:40:16.528Z,68.28
2023-03-20T02:42:56.681Z,67.83
2023-03-20T02:45:36.748Z,67.85
2023-03-20T02:48:26.298Z,67.86
2023-03-20T02:51:03.789Z,67.78
2023-03-20T02:53:43.586Z,67.90
2023-03-20T02:56:14.394Z,68.00
2023-03-20T02:58:46.541Z,68.27
2023-03-20T03:01:16.567Z,68.20
2023-03-20T03:03:48.326Z,68.22
2023-03-20T03:06:25.310Z,68.40
2023-03-20T03:09:02.322Z,68.45
2023-03-20T03:11:32.518Z,68.37
2023-03-20T03:14:02.337Z,68.52
2023-03-20T03:16:33.894Z,68.88
2023-03-20T03:19:06.717Z,68.90
2023-03-20T03:21:38.378Z,69.26
2023-03-20T03:24:19.847Z,69.03
2023-03-20T03:26:50.605Z,69.42
2023-03-20T03:29:19.989Z,70.14
2023-03-20T03:31:48.854Z,70.04
2023-03-20T03:34:18.567Z,69.90
2023-03-20T03:36:46.644Z,69.88
2023-03-20T03:39:24.756Z,69.78
2023-03-20T03:41:56.013Z,70.02
2023-03-20T03:44:51.093Z,70.12
2023-03-20T03:47:32.069Z,70.28
2023-03-20T03:50:03.351Z,69.87
2023-03-20T03:52:34.871Z,69.85
2023-03-20T03:55:06.740Z,69.99
2023-03-20T03:57:42.082Z,70.01
2023-03-20T04:00:15.632Z,69.99
2023-03-20T04:02:47.034Z,70.02
2023-03-20T04:05:16.550Z,70.26
2023-03-20T04:07:46.168Z,70.38
2023-03-20T04:10:15.268Z,70.55
2023-03-20T04:12:44.980Z,70.26
2023-03-20T04:15:14.698Z,70.44
2023-03-20T04:17:43.764Z,70.46
2023-03-20T04:20:14.220Z,70.50
2023-03-20T04:22:42.922Z,70.72
2023-03-20T04:25:24.700Z,70.61
2023-03-20T04:27:56.075Z,70.49
2023-03-20T04:30:32.421Z,70.54
2023-03-20T04:33:29.459Z,70.67
2023-03-20T04:36:21.228Z,71.02
2023-03-20T04:38:50.997Z,70.95
2023-03-20T04:41:21.490Z,71.21
2023-03-20T04:43:54.218Z,71.39
2023-03-20T04:46:24.167Z,71.43
2023-03-20T04:48:53.021Z,71.49
2023-03-20T04:52:32.095Z,71.56
2023-03-20T04:54:53.993Z,71.69
2023-03-20T04:57:25.648Z,71.64
2023-03-20T04:59:55.131Z,71.72
2023-03-20T05:02:37.118Z,71.77
2023-03-20T05:05:38.150Z,72.03
2023-03-20T05:08:21.476Z,72.49
2023-03-20T05:10:50.598Z,72.45
2023-03-20T05:13:38.214Z,72.56
2023-03-20T05:16:30.078Z,72.86
2023-03-20T05:19:20.093Z,73.00
2023-03-20T05:22:14.576Z,73.47
2023-03-20T05:24:42.856Z,73.85
2023-03-20T05:27:29.555Z,74.65
2023-03-20T05:30:24.143Z,74.72
2023-03-20T05:33:11.333Z,75.05
2023-03-20T05:36:00.156Z,75.03
2023-03-20T05:39:03.806Z,74.71
2023-03-20T05:41:45.890Z,75.01
2023-03-20T05:44:33.018Z,75.17
2023-03-20T05:47:27.994Z,75.16
2023-03-20T05:49:56.275Z,75.15
2023-03-20T05:52:51.272Z,75.14
2023-03-20T05:55:45.943Z,75.03
2023-03-20T05:58:32.343Z,74.74
2023-03-20T06:01:23.765Z,75.07
2023-03-20T06:04:12.194Z,74.76
2023-03-20T06:06:49.993Z,75.18
2023-03-20T06:09:18.481Z,74.74
2023-03-20T06:11:46.898Z,74.88
2023-03-20T06:14:17.209Z,74.68
2023-03-20T06:16:48.747Z,74.64
2023-03-20T06:19:17.775Z,74.75
2023-03-20T06:21:46.966Z,74.53
2023-03-20T06:24:16.885Z,74.83
2023-03-20T06:26:45.056Z,74.90
2023-03-20T06:29:14.772Z,74.61
2023-03-20T06:31:43.667Z,74.56
2023-03-20T06:34:15.120Z,74.57
2023-03-20T06:36:48.717Z,74.73
2023-03-20T06:39:21.093Z,74.54
2023-03-20T06:41:49.428Z,74.50
2023-03-20T06:44:31.598Z,74.61
2023-03-20T06:47:34.450Z,74.57
2023-03-20T06:50:37.022Z,74.34
2023-03-20T06:53:28.709Z,74.38
2023-03-20T06:56:20.046Z,74.20
2023-03-20T06:58:48.315Z,73.86
2023-03-20T07:01:17.944Z,73.74
2023-03-20T07:03:46.823Z,73.51
2023-03-20T07:06:18.541Z,73.15
2023-03-20T07:08:46.998Z,73.00
2023-03-20T07:11:15.568Z,72.81
2023-03-20T07:13:44.383Z,72.69
2023-03-20T07:16:21.168Z,72.44
2023-03-20T07:18:50.034Z,72.43
2023-03-20T07:21:20.981Z,72.06
2023-03-20T07:23:49.147Z,71.78
2023-03-20T07:26:17.643Z,70.98
2023-03-20T07:28:45.935Z,70.87
2023-03-20T07:31:21.369Z,70.60
2023-03-20T07:33:51.079Z,70.21
2023-03-20T07:36:19.263Z,70.00
2023-03-20T07:38:47.750Z,69.73
2023-03-20T07:41:15.926Z,69.29
2023-03-20T07:43:48.191Z,69.21
2023-03-20T07:46:19.349Z,69.26
2023-03-20T07:48:47.925Z,68.75
2023-03-20T07:51:16.206Z,69.16
2023-03-20T07:53:44.698Z,69.02
2023-03-20T07:56:12.973Z,68.84
2023-03-20T07:58:41.262Z,68.52
2023-03-20T08:01:09.453Z,68.04
2023-03-20T08:03:39.205Z,67.98
2023-03-20T08:06:10.119Z,68.01
2023-03-20T08:08:38.794Z,67.82
2023-03-20T08:11:07.377Z,67.66
2023-03-20T08:13:35.970Z,67.49
2023-03-20T08:16:04.451Z,67.50
2023-03-20T08:18:32.744Z,67.14
2023-03-20T08:21:01.033Z,66.93
2023-03-20T08:23:29.124Z,66.34
2023-03-20T08:25:57.477Z,66.36
2023-03-20T08:28:43.989Z,65.42
2023-03-20T08:31:13.730Z,65.20
2023-03-20T08:33:42.392Z,64.71
2023-03-20T08:36:10.868Z,64.99
2023-03-20T08:38:39.264Z,64.23
2023-03-20T08:41:08.152Z,63.68
2023-03-20T08:43:36.646Z,63.67
2023-03-20T08:46:06.316Z,63.56
2023-03-20T08:48:35.458Z,63.36
2023-03-20T08:51:03.780Z,63.19
2023-03-20T08:53:32.018Z,62.97
2023-03-20T08:56:00.501Z,62.62
2023-03-20T08:58:29.286Z,62.14
2023-03-20T09:00:57.594Z,60.95
2023-03-20T09:03:25.865Z,61.05
2023-03-20T09:05:54.446Z,60.54
2023-03-20T09:08:22.843Z,59.98
2023-03-20T09:10:53.428Z,58.73
2023-03-20T09:13:27.640Z,59.19
2023-03-20T09:15:57.102Z,57.74
2023-03-20T09:18:25.988Z,57.00
2023-03-20T09:20:54.477Z,56.89
2023-03-20T09:23:22.656Z,57.34
2023-03-20T09:25:50.956Z,56.90
2023-03-20T09:28:19.641Z,56.66
2023-03-20T09:30:48.624Z,56.40
2023-03-20T09:33:18.844Z,54.06
2023-03-20T09:35:47.141Z,52.86
2023-03-20T09:38:15.844Z,53.40
2023-03-20T09:40:57.312Z,53.11
2023-03-20T09:43:44.541Z,51.93
2023-03-20T09:46:13.267Z,47.63
2023-03-20T09:48:46.822Z,47.99
2023-03-20T09:51:33.726Z,47.73
2023-03-20T09:54:05.898Z,46.74
2023-03-20T09:56:34.392Z,45.59
2023-03-20T09:59:04.610Z,44.48
2023-03-20T10:01:58.939Z,44.47
2023-03-20T10:04:29.386Z,43.04
2023-03-20T10:06:57.808Z,40.62
2023-03-20T10:09:27.431Z,41.66
2023-03-20T10:12:11.145Z,42.01
2023-03-20T10:14:45.274Z,40.83
2023-03-20T10:17:32.472Z,39.71
2023-03-20T10:20:10.482Z,39.12
2023-03-20T10:22:42.235Z,39.16
2023-03-20T10:25:43.065Z,37.21
2023-03-20T10:28:17.090Z,35.36
2023-03-20T10:30:50.997Z,36.38
2023-03-20T10:33:27.429Z,35.12
2023-03-20T10:36:14.362Z,33.70
2023-03-20T10:38:50.321Z,33.67
2023-03-20T10:41:21.854Z,33.70
2023-03-20T10:43:51.698Z,34.51
2023-03-20T10:46:35.923Z,34.63
2023-03-20T10:49:13.427Z,32.80
2023-03-20T10:52:02.294Z,33.75
2023-03-20T10:54:33.141Z,33.18
2023-03-20T10:57:03.975Z,33.81
2023-03-20T10:59:41.123Z,33.76
2023-03-20T11:02:13.456Z,33.47
2023-03-20T11:04:41.980Z,33.54
2023-03-20T11:07:25.960Z,33.23
2023-03-20T11:10:06.582Z,30.64
2023-03-20T11:12:36.843Z,30.81
2023-03-20T11:15:15.462Z,31.35
2023-03-20T11:17:43.847Z,31.75
2023-03-20T11:20:14.381Z,29.29
2023-03-20T11:22:42.563Z,29.60
2023-03-20T11:25:23.015Z,30.52
2023-03-20T11:27:51.207Z,30.02
2023-03-20T11:30:19.789Z,30.17
2023-03-20T11:32:49.860Z,29.95
2023-03-20T11:35:26.790Z,28.68
2023-03-20T11:37:56.204Z,29.33
2023-03-20T11:40:26.132Z,29.93
2023-03-20T11:42:56.741Z,31.34
2023-03-20T11:45:25.959Z,32.07
2023-03-20T11:47:55.769Z,31.92
2023-03-20T11:50:33.405Z,32.50
2023-03-20T11:53:02.877Z,32.26
2023-03-20T11:55:32.486Z,32.93
2023-03-20T11:58:15.808Z,33.43
2023-03-20T12:00:50.131Z,33.82
2023-03-20T12:03:37.270Z,34.12
2023-03-20T12:06:13.509Z,34.72
2023-03-20T12:08:43.320Z,34.84
2023-03-20T12:11:21.518Z,34.91
2023-03-20T12:13:51.548Z,35.20
2023-03-20T12:16:25.326Z,35.31
2023-03-20T12:19:01.320Z,35.10
2023-03-20T12:21:39.639Z,35.19
2023-03-20T12:24:08.098Z,34.40
2023-03-20T12:26:45.097Z,33.87
2023-03-20T12:29:23.023Z,34.14
2023-03-20T12:31:54.245Z,34.03
2023-03-20T12:34:39.935Z,33.25
2023-03-20T12:37:14.512Z,32.60
2023-03-20T12:39:53.884Z,31.56
2023-03-20T12:42:41.826Z,30.86
2023-03-20T12:45:10.095Z,30.03
2023-03-20T12:47:41.757Z,28.81
2023-03-20T12:50:19.458Z,28.73
2023-03-20T12:53:06.461Z,29.28
2023-03-20T12:55:53.371Z,27.50
2023-03-20T12:58:40.897Z,27.96
2023-03-20T13:01:15.554Z,26.30
2023-03-20T13:03:44.516Z,26.27
2023-03-20T13:06:21.237Z,26.86
2023-03-20T13:08:58.168Z,26.13
2023-03-20T13:11:34.995Z,24.32
2023-03-20T13:14:24.614Z,24.54
2023-03-20T13:16:56.620Z,25.24
2023-03-20T13:19:45.129Z,24.75
2023-03-20T13:22:19.442Z,24.23
2023-03-20T13:24:50.091Z,23.36
2023-03-20T13:27:28.830Z,23.65
2023-03-20T13:30:12.841Z,24.15
2023-03-20T13:32:51.069Z,24.82
2023-03-20T13:35:40.136Z,24.16
2023-03-20T13:38:31.509Z,24.73
2023-03-20T13:41:03.784Z,24.50
2023-03-20T13:43:57.402Z,24.77
2023-03-20T13:46:29.466Z,24.69
2023-03-20T13:49:02.628Z,24.40
2023-03-20T13:51:31.094Z,23.63
2023-03-20T13:54:05.348Z,23.06
2023-03-20T13:56:42.544Z,24.01
2023-03-20T13:59:29.851Z,24.24
2023-03-20T14:02:18.151Z,24.07
2023-03-20T14:04:47.766Z,24.48
2023-03-20T14:07:29.762Z,24.28
2023-03-20T14:09:58.224Z,23.58
2023-03-20T14:12:27.753Z,24.38
2023-03-20T14:14:57.687Z,24.02
2023-03-20T14:17:30.558Z,23.57
2023-03-20T14:20:09.684Z,22.94
2023-03-20T14:22:39.602Z,23.18
2023-03-20T14:25:18.973Z,23.36
2023-03-20T14:28:06.769Z,23.44
2023-03-20T14:30:39.970Z,23.14
2023-03-20T14:33:17.375Z,23.41
2023-03-20T14:35:47.295Z,23.87
2023-03-20T14:38:23.137Z,24.30
2023-03-20T14:41:09.628Z,24.86
2023-03-20T14:43:59.621Z,25.48
2023-03-20T14:46:28.499Z,26.38
2023-03-20T14:48:57.089Z,27.27
2023-03-20T14:51:39.597Z,28.46
2023-03-20T14:54:23.025Z,30.02
2023-03-20T14:56:51.710Z,31.01
2023-03-20T14:59:22.659Z,32.01
2023-03-20T15:01:56.750Z,32.68
2023-03-20T15:04:28.339Z,33.52
2023-03-20T15:07:02.334Z,34.30
2023-03-20T15:09:32.334Z,35.64
2023-03-20T15:12:04.631Z,36.96
2023-03-20T15:14:47.954Z,37.18
2023-03-20T15:17:18.082Z,38.42
2023-03-20T15:19:46.574Z,38.56
2023-03-20T15:22:16.497Z,39.11
2023-03-20T15:24:52.143Z,39.56
2023-03-20T15:27:20.631Z,40.55
2023-03-20T15:29:54.437Z,41.03
2023-03-20T15:32:24.155Z,41.31
2023-03-20T15:34:52.635Z,42.21
2023-03-20T15:37:23.662Z,42.57
2023-03-20T15:39:55.639Z,43.26
2023-03-20T15:42:24.543Z,43.86
2023-03-20T15:44:54.167Z,44.10
2023-03-20T15:47:23.655Z,44.69
2023-03-20T15:49:56.290Z,44.75
2023-03-20T15:52:40.401Z,44.80
2023-03-20T15:55:14.607Z,44.71
2023-03-20T15:57:45.145Z,44.51
2023-03-20T16:00:20.351Z,45.27
2023-03-20T16:02:50.658Z,45.13
2023-03-20T16:05:20.009Z,45.76
2023-03-20T16:07:48.304Z,45.80
2023-03-20T16:10:19.440Z,46.54
2023-03-20T16:12:49.154Z,46.52
2023-03-20T16:15:19.182Z,46.24
2023-03-20T16:17:49.449Z,46.70
2023-03-20T16:20:21.753Z,46.28
2023-03-20T16:22:52.005Z,46.83
2023-03-20T16:25:20.076Z,47.08
2023-03-20T16:27:50.881Z,47.49
2023-03-20T16:30:22.791Z,48.11
2023-03-20T16:32:55.379Z,47.97
2023-03-20T16:35:46.643Z,48.07
2023-03-20T16:38:20.884Z,47.93
2023-03-20T16:40:50.600Z,47.35
2023-03-20T16:43:20.716Z,47.09
2023-03-20T16:45:53.102Z,47.11
2023-03-20T16:48:22.612Z,47.24
2023-03-20T16:50:55.598Z,47.35
2023-03-20T16:53:24.966Z,47.63
2023-03-20T16:55:55.127Z,47.79
2023-03-20T16:58:25.833Z,47.75
2023-03-20T17:01:08.907Z,47.37
2023-03-20T17:03:45.661Z,47.55
2023-03-20T17:06:20.879Z,47.74
2023-03-20T17:08:53.601Z,48.55
2023-03-20T17:11:23.761Z,48.55
2023-03-20T17:13:52.296Z,48.87
2023-03-20T17:16:21.974Z,49.43
2023-03-20T17:19:01.071Z,49.17
2023-03-20T17:21:29.752Z,49.37
2023-03-20T17:23:58.315Z,49.58
2023-03-20T17:26:26.393Z,49.78
2023-03-20T17:28:55.506Z,49.92
2023-03-20T17:31:23.674Z,49.38
2023-03-20T17:33:53.091Z,49.36
2023-03-20T17:36:23.513Z,49.92
2023-03-20T17:38:51.877Z,49.81
2023-03-20T17:41:22.905Z,50.23
2023-03-20T17:43:52.049Z,50.32
2023-03-20T17:46:26.795Z,50.76
2023-03-20T17:49:06.305Z,51.02
2023-03-20T17:51:35.512Z,51.39
2023-03-20T17:54:03.901Z,50.69
2023-03-20T17:56:33.102Z,51.05
2023-03-20T17:59:02.580Z,50.94
2023-03-20T18:01:32.708Z,50.85
2023-03-20T18:04:01.343Z,50.90
2023-03-20T18:06:31.448Z,51.88
2023-03-20T18:09:00.353Z,51.71
2023-03-20T18:11:29.564Z,51.38
2023-03-20T18:14:00.112Z,51.91
2023-03-20T18:16:28.572Z,52.17
2023-03-20T18:18:57.363Z,52.26
2023-03-20T18:21:25.946Z,52.63
2023-03-20T18:23:54.536Z,52.66
2023-03-20T18:26:24.577Z,52.74
2023-03-20T18:28:53.669Z,53.37
2023-03-20T18:31:22.575Z,53.35
2023-03-20T18:33:52.328Z,53.67
2023-03-20T18:36:22.097Z,53.85
2023-03-20T18:38:51.087Z,53.73
2023-03-20T18:41:19.681Z,53.71
2023-03-20T18:43:48.510Z,54.18
2023-03-20T18:46:18.232Z,54.18
2023-03-20T18:48:47.530Z,54.94
2023-03-20T18:51:29.589Z,54.62
2023-03-20T18:54:02.698Z,54.98
2023-03-20T18:56:38.459Z,54.97
2023-03-20T18:59:27.186Z,55.14
2023-03-20T19:01:55.615Z,55.03
2023-03-20T19:04:24.297Z,55.43
2023-03-20T19:06:53.085Z,55.45
2023-03-20T19:09:22.054Z,55.07
2023-03-20T19:11:50.755Z,55.41
2023-03-20T19:14:19.743Z,55.79
2023-03-20T19:16:48.225Z,55.32
2023-03-20T19:19:16.708Z,55.43
2023-03-20T19:21:44.887Z,56.00
2023-03-20T19:24:13.174Z,55.83
2023-03-20T19:26:42.267Z,56.13
2023-03-20T19:29:11.788Z,56.11
2023-03-20T19:31:39.931Z,56.25
2023-03-20T19:34:19.597Z,56.52
2023-03-20T19:36:56.580Z,56.72
2023-03-20T19:39:24.759Z,56.64
2023-03-20T19:41:52.872Z,56.76
2023-03-20T19:44:23.574Z,57.13
2023-03-20T19:46:53.031Z,57.43
2023-03-20T19:49:30.186Z,57.54
2023-03-20T19:51:58.968Z,57.16
2023-03-20T19:54:28.680Z,57.23
2023-03-20T19:56:57.158Z,57.41
2023-03-20T19:59:26.003Z,57.48
2023-03-20T20:01:54.969Z,57.38
2023-03-20T20:04:23.448Z,57.70
2023-03-20T20:06:55.625Z,57.54
2023-03-20T20:09:26.869Z,58.23
2023-03-20T20:11:55.658Z,58.02
2023-03-20T20:14:24.754Z,58.34
2023-03-20T20:16:53.978Z,58.21
2023-03-20T20:19:22.788Z,58.25
2023-03-20T20:24:39.476Z,58.63
2023-03-20T20:27:18.397Z,58.60
2023-03-20T20:29:48.032Z,58.67
2023-03-20T20:32:16.787Z,58.92
2023-03-20T20:40:27.798Z,58.72
2023-03-20T20:43:01.314Z,59.04
2023-03-20T20:45:31.659Z,59.32
2023-03-20T20:48:00.682Z,59.21
2023-03-20T20:50:29.745Z,58.91
2023-03-20T20:52:58.728Z,59.11
2023-03-20T20:55:27.598Z,59.11
2023-03-20T20:57:56.936Z,59.38
2023-03-20T21:00:41.088Z,59.42
2023-03-20T21:03:14.796Z,59.73
2023-03-20T21:05:43.608Z,59.67
2023-03-20T21:08:13.522Z,60.25
2023-03-20T21:10:41.888Z,60.71
2023-03-20T21:13:10.797Z,60.71
2023-03-20T21:15:39.763Z,60.23
2023-03-20T21:18:08.563Z,60.48
2023-03-20T21:20:38.527Z,60.85
2023-03-20T21:23:06.768Z,60.93
2023-03-20T21:25:45.459Z,61.27
2023-03-20T21:28:15.242Z,60.86
2023-03-20T21:30:59.938Z,61.78
2023-03-20T21:33:32.847Z,61.66
2023-03-20T21:36:01.291Z,61.51
2023-03-20T21:41:18.055Z,62.59
2023-03-20T21:43:47.796Z,62.66
2023-03-20T21:55:30.948Z,62.03
2023-03-20T21:58:17.681Z,62.24
2023-03-20T22:01:19.634Z,61.83
2023-03-20T22:03:28.931Z,62.19
2023-03-20T22:06:50.563Z,62.30
2023-03-20T22:29:18.347Z,63.88
2023-03-20T22:31:56.284Z,63.95
2023-03-20T22:34:39.763Z,64.19
2023-03-20T22:37:39.410Z,64.03
2023-03-20T22:47:48.278Z,63.75
2023-03-20T22:50:17.163Z,63.87
2023-03-20T22:52:49.594Z,63.69
2023-03-20T22:55:18.200Z,64.19
2023-03-20T22:58:00.036Z,64.15
2023-03-20T23:00:35.088Z,64.17
2023-03-20T23:03:38.105Z,64.13
2023-03-20T23:05:56.074Z,64.07
2023-03-20T23:08:24.825Z,63.57
2023-03-20T23:10:53.258Z,63.68
2023-03-20T23:13:22.661Z,64.10
2023-03-20T23:15:51.346Z,64.00
2023-03-20T23:18:19.527Z,64.18
2023-03-20T23:20:47.926Z,64.30
2023-03-20T23:23:16.403Z,63.93
2023-03-20T23:25:44.784Z,64.16
2023-03-20T23:28:12.876Z,64.19
2023-03-20T23:30:48.157Z,64.03
2023-03-20T23:33:19.966Z,63.95
2023-03-20T23:35:48.803Z,63.79
2023-03-20T23:38:18.066Z,63.84
2023-03-20T23:40:50.362Z,63.99
2023-03-20T23:43:18.842Z,64.33
2023-03-20T23:45:47.362Z,64.64
2023-03-20T23:48:16.144Z,64.89
2023-03-20T23:50:52.550Z,64.74
2023-03-20T23:53:22.296Z,64.82
2023-03-20T23:55:52.132Z,64.60
2023-03-20T23:58:21.013Z,64.74
